Time;durP1;ratioP1;P1;durP2;ratioP2;P2;SDS_P1;SDS_P2;PMS_P1;PMS_P2;Temp;Humidity;BMP_temperature;BMP_pressure;BME280_temperature;BME280_humidity;BME280_pressure;Samples;Min_cycle;Max_cycle;Signal;HPM_P1;HPM_P2
2023/01/10 00:01:28;;;;;;;16.55;4.25;;;;;;;;;;5025998;28;20048;-68
2023/01/10 00:04:15;;;;;;;14.68;3.88;;;;;;;;;;5019348;28;20398;-69
2023/01/10 00:06:41;;;;;;;23.60;3.47;;;;;;;;;;5017712;28;20101;-68
2023/01/10 00:09:09;;;;;;;14.10;2.78;;;;;;;;;;5017329;28;20042;-69
2023/01/10 00:14:22;;;;;;;11.30;2.72;;;;;;;;;;5017359;28;20072;-69
2023/01/10 00:16:48;;;;;;;15.20;3.35;;;;;;;;;;4995395;28;20039;-69
2023/01/10 00:19:15;;;;;;;11.68;2.67;;;;;;;;;;5018527;28;20328;-69
2023/01/10 00:21:43;;;;;;;11.63;3.47;;;;;;;;;;5036965;28;20678;-69
2023/01/10 00:24:22;;;;;;;14.95;3.15;;;;;;;;;;5037226;28;20033;-69
2023/01/10 00:26:53;;;;;;;13.50;3.63;;;;;;;;;;5041164;28;20100;-68
2023/01/10 00:29:20;;;;;;;12.40;3.40;;;;;;;;;;5033356;28;20045;-69
2023/01/10 00:31:47;;;;;;;16.70;3.13;;;;;;;;;;5036180;28;20033;-68
2023/01/10 00:34:14;;;;;;;19.25;3.40;;;;;;;;;;5039346;28;20082;-69
2023/01/10 00:36:41;;;;;;;12.35;3.42;;;;;;;;;;5036959;28;20045;-69
2023/01/10 00:39:10;;;;;;;7.85;3.05;;;;;;;;;;5036777;28;20128;-70
2023/01/10 00:44:21;;;;;;;11.00;3.95;;;;;;;;;;5035368;28;20690;-68
2023/01/10 00:46:48;;;;;;;13.30;3.17;;;;;;;;;;5034574;28;20115;-69
2023/01/10 00:49:15;;;;;;;11.98;3.17;;;;;;;;;;5035348;28;20040;-72
2023/01/10 00:51:42;;;;;;;10.57;3.30;;;;;;;;;;5041133;28;20036;-69
2023/01/10 00:54:09;;;;;;;8.38;2.60;;;;;;;;;;5030529;28;20063;-70
2023/01/10 00:56:36;;;;;;;10.35;2.97;;;;;;;;;;5017198;28;20084;-69
2023/01/10 00:59:03;;;;;;;10.43;2.45;;;;;;;;;;5029923;28;20472;-70
2023/01/10 01:01:29;;;;;;;14.27;2.63;;;;;;;;;;5028112;28;20489;-69
2023/01/10 01:03:58;;;;;;;7.40;2.40;;;;;;;;;;5031735;28;20043;-69
2023/01/10 01:06:25;;;;;;;10.65;2.60;;;;;;;;;;5032143;28;20048;-70
2023/01/10 01:08:51;;;;;;;12.20;2.38;;;;;;;;;;5025353;28;20774;-70
2023/01/10 01:11:19;;;;;;;13.82;2.78;;;;;;;;;;5037096;28;20365;-71
2023/01/10 01:13:46;;;;;;;9.73;2.72;;;;;;;;;;5036659;28;20048;-70
2023/01/10 01:16:14;;;;;;;8.63;2.45;;;;;;;;;;5037053;28;20781;-69
2023/01/10 01:18:41;;;;;;;13.82;3.10;;;;;;;;;;5050142;28;20045;-68
2023/01/10 01:21:08;;;;;;;8.68;2.60;;;;;;;;;;5048333;28;20037;-70
2023/01/10 01:23:35;;;;;;;7.68;2.50;;;;;;;;;;5075631;28;20052;-70
2023/01/10 01:26:01;;;;;;;12.77;3.55;;;;;;;;;;5078107;28;20029;-68
2023/01/10 01:28:28;;;;;;;12.10;2.88;;;;;;;;;;5059435;28;20043;-70
2023/01/10 01:30:55;;;;;;;8.25;3.00;;;;;;;;;;5063025;28;20036;-69
2023/01/10 01:33:21;;;;;;;14.98;3.67;;;;;;;;;;5059308;28;20041;-70
2023/01/10 01:35:49;;;;;;;14.30;3.55;;;;;;;;;;5058869;28;20067;-71
2023/01/10 01:38:16;;;;;;;16.95;3.63;;;;;;;;;;5051518;28;20044;-71
2023/01/10 01:40:43;;;;;;;9.07;3.22;;;;;;;;;;5053517;28;20485;-70
2023/01/10 01:43:30;;;;;;;9.13;3.40;;;;;;;;;;5047168;28;20105;-70
2023/01/10 01:46:01;;;;;;;13.52;4.13;;;;;;;;;;5029425;28;20091;-70
2023/01/10 01:48:37;;;;;;;14.70;3.42;;;;;;;;;;5029259;28;20091;-70
2023/01/10 01:51:09;;;;;;;11.93;3.95;;;;;;;;;;5014550;28;20075;-69
2023/01/10 01:53:42;;;;;;;11.35;3.85;;;;;;;;;;5036740;28;20492;-70
2023/01/10 01:56:37;;;;;;;11.52;4.50;;;;;;;;;;5020724;28;20041;-70
2023/01/10 01:59:15;;;;;;;10.18;3.70;;;;;;;;;;5013143;28;20055;-70
2023/01/10 02:01:42;;;;;;;14.23;4.57;;;;;;;;;;5005431;28;20580;-69
2023/01/10 02:04:15;;;;;;;11.45;4.60;;;;;;;;;;5026133;28;20101;-68
2023/01/10 02:06:42;;;;;;;8.77;3.73;;;;;;;;;;5024531;28;20072;-70
2023/01/10 02:09:16;;;;;;;13.32;5.82;;;;;;;;;;5022410;28;20525;-70
2023/01/10 02:11:42;;;;;;;9.73;3.92;;;;;;;;;;5045876;28;20087;-70
2023/01/10 02:14:10;;;;;;;15.25;4.43;;;;;;;;;;5063071;28;20032;-69
2023/01/10 02:16:37;;;;;;;9.13;3.50;;;;;;;;;;5062195;28;20027;-71
2023/01/10 02:19:05;;;;;;;11.23;4.10;;;;;;;;;;5063078;28;20040;-70
2023/01/10 02:21:32;;;;;;;10.07;3.97;;;;;;;;;;5060155;28;20104;-69
2023/01/10 02:24:04;;;;;;;11.60;3.88;;;;;;;;;;5060600;28;20174;-70
2023/01/10 02:26:41;;;;;;;9.90;3.58;;;;;;;;;;5060185;28;20087;-70
2023/01/10 02:29:20;;;;;;;12.48;3.83;;;;;;;;;;5060897;28;20109;-67
2023/01/10 02:32:05;;;;;;;13.77;4.13;;;;;;;;;;5062294;28;20032;-68
2023/01/10 02:34:44;;;;;;;12.98;4.13;;;;;;;;;;5044035;28;20059;-68
2023/01/10 02:37:25;;;;;;;14.77;3.58;;;;;;;;;;5023963;28;20041;-69
2023/01/10 02:39:57;;;;;;;9.82;3.70;;;;;;;;;;5039282;28;20037;-67
2023/01/10 02:42:36;;;;;;;9.75;3.20;;;;;;;;;;5047583;28;20591;-67
2023/01/10 02:45:21;;;;;;;8.93;3.65;;;;;;;;;;5048707;28;20524;-68
2023/01/10 02:47:48;;;;;;;9.25;3.35;;;;;;;;;;5059970;28;20549;-70
2023/01/10 02:50:21;;;;;;;16.70;4.28;;;;;;;;;;5046089;28;21809;-69
2023/01/10 02:52:47;;;;;;;10.82;3.50;;;;;;;;;;5038557;28;20053;-67
2023/01/10 02:55:14;;;;;;;7.97;2.92;;;;;;;;;;5030623;28;20073;-68
2023/01/10 02:57:51;;;;;;;10.82;3.20;;;;;;;;;;5028226;28;20477;-69
2023/01/10 03:00:36;;;;;;;10.45;3.28;;;;;;;;;;5032318;28;20033;-69
2023/01/10 03:03:06;;;;;;;10.20;3.75;;;;;;;;;;5032148;28;20044;-72
2023/01/10 03:05:51;;;;;;;12.80;4.00;;;;;;;;;;5028380;28;20053;-71
2023/01/10 03:08:35;;;;;;;10.85;3.88;;;;;;;;;;5027497;28;20049;-66
2023/01/10 03:11:05;;;;;;;14.80;4.28;;;;;;;;;;5026903;28;20096;-69
2023/01/10 03:13:39;;;;;;;12.27;3.92;;;;;;;;;;5028871;28;20041;-70
2023/01/10 03:16:05;;;;;;;;;;;;;;;;;;5029997;28;20052;-71
2023/01/10 03:18:33;;;;;;;11.90;3.83;;;;;;;;;;5029013;28;19959;-69
2023/01/10 03:21:02;;;;;;;10.60;3.75;;;;;;;;;;5027600;28;20033;-70
2023/01/10 03:23:28;;;;;;;13.63;3.80;;;;;;;;;;5027878;28;21697;-71
2023/01/10 03:25:55;;;;;;;14.65;3.78;;;;;;;;;;5029862;28;20047;-73
2023/01/10 03:28:41;;;;;;;14.45;3.33;;;;;;;;;;5025005;28;20057;-69
2023/01/10 03:31:10;;;;;;;15.35;4.38;;;;;;;;;;5026990;28;20048;-70
2023/01/10 03:33:37;;;;;;;17.42;4.00;;;;;;;;;;5028661;28;20143;-68
2023/01/10 03:36:25;;;;;;;11.52;4.40;;;;;;;;;;5029141;28;20045;-68
2023/01/10 03:39:01;;;;;;;13.00;3.92;;;;;;;;;;5029623;28;20628;-67
2023/01/10 03:41:34;;;;;;;8.82;3.25;;;;;;;;;;5033422;28;20045;-70
2023/01/10 03:47:20;;;;;;;18.95;4.13;;;;;;;;;;5027303;28;20111;-68
2023/01/10 03:49:49;;;;;;;13.80;3.67;;;;;;;;;;5010735;28;20049;-70
2023/01/10 03:52:17;;;;;;;12.35;3.88;;;;;;;;;;5042092;28;20383;-68
2023/01/10 03:54:44;;;;;;;12.30;4.32;;;;;;;;;;5027419;28;20040;-68
2023/01/10 03:57:18;;;;;;;13.55;4.70;;;;;;;;;;5027242;28;20048;-68
2023/01/10 03:59:45;;;;;;;15.27;6.13;;;;;;;;;;5027874;28;20148;-71
2023/01/10 04:02:12;;;;;;;12.38;5.00;;;;;;;;;;5027255;28;21332;-71
2023/01/10 04:04:39;;;;;;;20.92;5.38;;;;;;;;;;5027572;28;20120;-71
2023/01/10 04:07:06;;;;;;;15.48;3.75;;;;;;;;;;5027510;28;20157;-71
2023/01/10 04:09:33;;;;;;;20.05;4.28;;;;;;;;;;5026033;28;20052;-72
2023/01/10 04:12:00;;;;;;;15.90;4.40;;;;;;;;;;5031305;28;20030;-72
2023/01/10 04:14:26;;;;;;;17.67;4.05;;;;;;;;;;5027521;28;20049;-71
2023/01/10 04:16:54;;;;;;;16.50;4.68;;;;;;;;;;5028132;28;20048;-72
2023/01/10 04:19:21;;;;;;;11.13;4.78;;;;;;;;;;5011839;28;20052;-72
2023/01/10 04:21:48;;;;;;;18.27;4.35;;;;;;;;;;5035093;28;20056;-75
2023/01/10 04:24:15;;;;;;;11.20;3.28;;;;;;;;;;5032547;28;20087;-70
2023/01/10 04:26:41;;;;;;;21.90;4.07;;;;;;;;;;5027270;28;20033;-70
2023/01/10 04:29:08;;;;;;;11.90;3.83;;;;;;;;;;5026717;28;20037;-72
2023/01/10 04:31:35;;;;;;;15.48;3.60;;;;;;;;;;5033651;28;20045;-71
2023/01/10 04:34:02;;;;;;;19.30;3.75;;;;;;;;;;5047195;28;20043;-71
2023/01/10 04:36:28;;;;;;;13.55;3.25;;;;;;;;;;5028986;28;20083;-71
2023/01/10 04:38:55;;;;;;;13.75;3.33;;;;;;;;;;5046044;28;20039;-72
2023/01/10 04:41:22;;;;;;;9.35;3.03;;;;;;;;;;5046949;28;20493;-72
2023/01/10 04:43:49;;;;;;;11.98;3.40;;;;;;;;;;5047237;28;20060;-71
2023/01/10 04:46:17;;;;;;;15.52;3.90;;;;;;;;;;5047651;28;20586;-74
2023/01/10 04:48:43;;;;;;;12.70;3.30;;;;;;;;;;5052009;28;20802;-70
2023/01/10 04:51:10;;;;;;;9.93;3.45;;;;;;;;;;5053528;28;20036;-70
2023/01/10 04:53:37;;;;;;;13.73;2.97;;;;;;;;;;5055035;28;20123;-74
2023/01/10 04:56:04;;;;;;;15.77;3.58;;;;;;;;;;5048907;28;20159;-72
2023/01/10 04:58:34;;;;;;;16.23;4.05;;;;;;;;;;5050445;28;20583;-71
2023/01/10 05:01:06;;;;;;;17.48;3.95;;;;;;;;;;5048877;28;20572;-69
2023/01/10 05:03:33;;;;;;;15.13;3.28;;;;;;;;;;5044770;28;20094;-71
2023/01/10 05:06:00;;;;;;;11.63;3.88;;;;;;;;;;5030860;28;20101;-72
2023/01/10 05:08:28;;;;;;;11.95;3.45;;;;;;;;;;5026899;28;20152;-71
2023/01/10 05:10:54;;;;;;;12.45;2.95;;;;;;;;;;5040629;28;20041;-71
2023/01/10 05:13:21;;;;;;;14.00;3.42;;;;;;;;;;5047612;28;20036;-71
2023/01/10 05:15:48;;;;;;;10.23;3.20;;;;;;;;;;5050656;28;20040;-71
2023/01/10 05:18:15;;;;;;;15.43;3.50;;;;;;;;;;5048286;28;20481;-70
2023/01/10 05:20:41;;;;;;;21.30;3.45;;;;;;;;;;5050734;28;20064;-70
2023/01/10 05:23:08;;;;;;;15.10;3.22;;;;;;;;;;5051130;28;20072;-70
2023/01/10 05:25:34;;;;;;;12.60;2.78;;;;;;;;;;5047915;28;20095;-70
2023/01/10 05:28:01;;;;;;;12.43;3.33;;;;;;;;;;5046313;28;20754;-69
2023/01/10 05:30:28;;;;;;;14.68;3.60;;;;;;;;;;5049033;28;20032;-70
2023/01/10 05:32:54;;;;;;;11.15;2.67;;;;;;;;;;5050037;28;20037;-70
2023/01/10 05:35:21;;;;;;;10.63;2.95;;;;;;;;;;5063799;28;20033;-70
2023/01/10 05:37:47;;;;;;;18.00;3.33;;;;;;;;;;5050978;28;20056;-71
2023/01/10 05:40:14;;;;;;;8.38;2.65;;;;;;;;;;5051126;28;20032;-72
2023/01/10 05:42:41;;;;;;;14.07;3.22;;;;;;;;;;5048538;28;20104;-71
2023/01/10 05:45:08;;;;;;;11.13;2.83;;;;;;;;;;5049192;28;20128;-72
2023/01/10 05:47:35;;;;;;;7.32;2.38;;;;;;;;;;5049469;28;20564;-71
2023/01/10 05:50:01;;;;;;;14.38;2.63;;;;;;;;;;5050941;28;20076;-71
2023/01/10 05:52:28;;;;;;;9.98;2.65;;;;;;;;;;5048294;28;20477;-72
2023/01/10 05:54:55;;;;;;;9.45;2.65;;;;;;;;;;5041401;28;20040;-72
2023/01/10 05:57:23;;;;;;;10.82;2.72;;;;;;;;;;5042188;28;20042;-73
2023/01/10 05:59:50;;;;;;;12.55;3.28;;;;;;;;;;5049386;28;20056;-72
2023/01/10 06:02:17;;;;;;;7.30;2.83;;;;;;;;;;5064890;28;20182;-71
2023/01/10 06:04:43;;;;;;;9.73;2.65;;;;;;;;;;5021835;28;20124;-71
2023/01/10 06:07:10;;;;;;;19.25;3.50;;;;;;;;;;5024925;28;20900;-71
2023/01/10 06:09:37;;;;;;;9.05;2.85;;;;;;;;;;5055075;28;20128;-71
2023/01/10 06:12:04;;;;;;;7.20;2.42;;;;;;;;;;5027434;28;20396;-72
2023/01/10 06:14:30;;;;;;;8.73;2.83;;;;;;;;;;5040986;28;20060;-72
2023/01/10 06:16:57;;;;;;;11.48;3.10;;;;;;;;;;5060758;28;20059;-72
2023/01/10 06:19:23;;;;;;;12.13;2.88;;;;;;;;;;5044965;28;20032;-72
2023/01/10 06:21:50;;;;;;;14.05;3.15;;;;;;;;;;5043924;28;20043;-71
2023/01/10 06:24:17;;;;;;;9.00;2.88;;;;;;;;;;5044303;28;20098;-72
2023/01/10 06:26:43;;;;;;;11.82;3.03;;;;;;;;;;5079480;28;20035;-72
2023/01/10 06:29:10;;;;;;;16.15;3.47;;;;;;;;;;5067132;28;20064;-72
2023/01/10 06:31:37;;;;;;;9.00;3.05;;;;;;;;;;5060801;28;20102;-72
2023/01/10 06:34:05;;;;;;;11.13;2.78;;;;;;;;;;5071601;28;20040;-71
2023/01/10 06:36:32;;;;;;;11.63;3.10;;;;;;;;;;5059489;28;20403;-70
2023/01/10 06:38:58;;;;;;;12.32;3.60;;;;;;;;;;5043447;28;20857;-73
2023/01/10 06:41:25;;;;;;;8.02;3.35;;;;;;;;;;5046259;28;20565;-71
2023/01/10 06:43:52;;;;;;;11.52;3.00;;;;;;;;;;5063015;28;20028;-70
2023/01/10 06:46:19;;;;;;;8.95;3.08;;;;;;;;;;5047125;28;20045;-71
2023/01/10 06:48:46;;;;;;;12.23;3.15;;;;;;;;;;5032566;28;20045;-71
2023/01/10 06:51:13;;;;;;;11.85;2.92;;;;;;;;;;5025993;28;20037;-71
2023/01/10 06:53:40;;;;;;;13.38;3.33;;;;;;;;;;5027523;28;20495;-70
2023/01/10 06:56:08;;;;;;;13.93;3.30;;;;;;;;;;5025986;28;20493;-70
2023/01/10 06:58:37;;;;;;;14.05;3.22;;;;;;;;;;5025394;28;20069;-70
2023/01/10 07:01:07;;;;;;;9.80;2.83;;;;;;;;;;5027110;28;20067;-71
2023/01/10 07:03:34;;;;;;;9.68;2.70;;;;;;;;;;5026486;28;20049;-70
2023/01/10 07:06:02;;;;;;;11.82;3.03;;;;;;;;;;5024167;28;20032;-71
2023/01/10 07:08:28;;;;;;;12.32;3.17;;;;;;;;;;5024392;28;20138;-71
2023/01/10 07:10:58;;;;;;;14.25;3.00;;;;;;;;;;5040696;28;20041;-72
2023/01/10 07:13:43;;;;;;;12.10;3.13;;;;;;;;;;5043022;28;20060;-71
2023/01/10 07:16:11;;;;;;;12.02;2.80;;;;;;;;;;5058227;28;20067;-71
2023/01/10 07:18:38;;;;;;;6.03;2.42;;;;;;;;;;5062314;28;20040;-71
2023/01/10 07:21:05;;;;;;;4.93;2.10;;;;;;;;;;5065007;28;20032;-70
2023/01/10 07:23:32;;;;;;;6.80;2.10;;;;;;;;;;5050800;28;20104;-71
2023/01/10 07:26:02;;;;;;;8.18;2.08;;;;;;;;;;5063328;28;20437;-70
2023/01/10 07:28:28;;;;;;;7.72;1.75;;;;;;;;;;5064331;28;20044;-69
2023/01/10 07:30:57;;;;;;;6.65;1.88;;;;;;;;;;5064120;28;20070;-70
2023/01/10 07:33:24;;;;;;;8.80;2.10;;;;;;;;;;5062074;28;20089;-71
2023/01/10 07:35:50;;;;;;;10.77;2.15;;;;;;;;;;5064614;28;20072;-70
2023/01/10 07:38:17;;;;;;;10.15;2.33;;;;;;;;;;5063211;28;20045;-70
2023/01/10 07:40:44;;;;;;;9.68;2.78;;;;;;;;;;5063479;28;20047;-70
2023/01/10 07:43:13;;;;;;;7.20;2.70;;;;;;;;;;5046931;28;20172;-71
2023/01/10 07:45:40;;;;;;;17.95;2.50;;;;;;;;;;5030317;28;20054;-69
2023/01/10 07:48:07;;;;;;;9.80;2.22;;;;;;;;;;5025146;28;20036;-70
2023/01/10 07:50:34;;;;;;;9.13;2.90;;;;;;;;;;5028170;28;20040;-70
2023/01/10 07:53:02;;;;;;;11.50;3.08;;;;;;;;;;5025392;28;20110;-71
2023/01/10 07:55:29;;;;;;;15.20;2.80;;;;;;;;;;5026794;28;20056;-71
2023/01/10 07:57:56;;;;;;;18.00;2.88;;;;;;;;;;5027007;28;20038;-71
2023/01/10 08:00:22;;;;;;;13.25;2.50;;;;;;;;;;5024920;28;20145;-70
2023/01/10 08:02:52;;;;;;;8.95;2.67;;;;;;;;;;5027315;28;20073;-70
2023/01/10 08:05:19;;;;;;;12.35;3.00;;;;;;;;;;5036994;28;20091;-70
2023/01/10 08:07:47;;;;;;;9.60;2.65;;;;;;;;;;5038461;28;20120;-71
2023/01/10 08:10:16;;;;;;;7.60;2.50;;;;;;;;;;5040376;28;20090;-68
2023/01/10 08:12:44;;;;;;;11.73;2.65;;;;;;;;;;5024295;28;20068;-69
2023/01/10 08:15:14;;;;;;;12.57;2.40;;;;;;;;;;5057300;28;20467;-71
2023/01/10 08:17:41;;;;;;;5.97;2.67;;;;;;;;;;5040202;28;20119;-70
2023/01/10 08:20:12;;;;;;;9.05;2.08;;;;;;;;;;5045502;28;20047;-70
2023/01/10 08:22:42;;;;;;;8.40;2.60;;;;;;;;;;5062025;28;20047;-70
2023/01/10 08:25:14;;;;;;;9.35;2.40;;;;;;;;;;5066031;28;20062;-70
2023/01/10 08:27:44;;;;;;;6.35;2.33;;;;;;;;;;5066108;28;20086;-71
2023/01/10 08:30:16;;;;;;;7.68;2.10;;;;;;;;;;5052990;28;20045;-70
2023/01/10 08:32:47;;;;;;;8.45;1.95;;;;;;;;;;4996578;28;20992;-70
2023/01/10 08:35:14;;;;;;;6.97;2.00;;;;;;;;;;4995596;28;20069;-71
2023/01/10 08:37:47;;;;;;;5.93;1.83;;;;;;;;;;4992708;28;20771;-69
2023/01/10 08:40:16;;;;;;;6.05;2.00;;;;;;;;;;4995351;28;20531;-72
2023/01/10 08:42:43;;;;;;;7.75;1.92;;;;;;;;;;4998555;28;20041;-71
2023/01/10 08:45:10;;;;;;;7.38;1.90;;;;;;;;;;4999992;28;20057;-72
2023/01/10 08:47:41;;;;;;;8.57;1.83;;;;;;;;;;4995042;28;20118;-71
2023/01/10 08:50:13;;;;;;;6.78;2.30;;;;;;;;;;4994990;28;21036;-71
2023/01/10 08:53:03;;;;;;;5.07;2.20;;;;;;;;;;4986584;28;20518;-72
2023/01/10 08:55:35;;;;;;;7.25;1.90;;;;;;;;;;4979898;28;20146;-71
2023/01/10 08:58:02;;;;;;;7.05;2.22;;;;;;;;;;4979843;28;20096;-71
2023/01/10 09:00:32;;;;;;;6.43;1.73;;;;;;;;;;4973619;28;20046;-72
2023/01/10 09:02:59;;;;;;;6.25;2.20;;;;;;;;;;4981699;28;20038;-71
2023/01/10 09:05:26;;;;;;;7.70;1.98;;;;;;;;;;4974317;28;20100;-72
2023/01/10 09:07:57;;;;;;;8.43;1.90;;;;;;;;;;4997007;28;20047;-69
2023/01/10 09:10:26;;;;;;;6.68;2.00;;;;;;;;;;5002187;28;20413;-71
2023/01/10 09:12:55;;;;;;;6.57;1.92;;;;;;;;;;5020618;28;20049;-71
2023/01/10 09:15:30;;;;;;;7.60;1.63;;;;;;;;;;5018847;28;20658;-73
2023/01/10 09:18:01;;;;;;;7.47;2.10;;;;;;;;;;5020308;28;20045;-69
2023/01/10 09:20:29;;;;;;;9.77;1.95;;;;;;;;;;5017008;28;20043;-69
2023/01/10 09:23:11;;;;;;;4.88;1.70;;;;;;;;;;5029726;28;20040;-69
2023/01/10 09:25:40;;;;;;;9.25;1.90;;;;;;;;;;5047125;28;20124;-69
2023/01/10 09:28:07;;;;;;;9.77;1.90;;;;;;;;;;5048974;28;20037;-71
2023/01/10 09:30:39;;;;;;;7.28;1.83;;;;;;;;;;5050738;28;20156;-71
2023/01/10 09:33:06;;;;;;;5.75;1.70;;;;;;;;;;5051207;28;20041;-68
2023/01/10 09:35:42;;;;;;;4.85;1.63;;;;;;;;;;5053017;28;20066;-70
2023/01/10 09:38:16;;;;;;;6.97;1.77;;;;;;;;;;5014179;28;20041;-70
2023/01/10 09:40:51;;;;;;;6.93;1.83;;;;;;;;;;5011605;28;20037;-70
2023/01/10 09:43:18;;;;;;;7.22;1.75;;;;;;;;;;5012836;28;20104;-72
2023/01/10 09:45:54;;;;;;;6.75;1.70;;;;;;;;;;5011405;28;20050;-72
2023/01/10 09:51:15;;;;;;;8.27;1.50;;;;;;;;;;4944358;22;20267;-59
2023/01/10 09:53:46;;;;;;;5.63;1.80;;;;;;;;;;5017231;28;21461;-70
2023/01/10 09:56:14;;;;;;;4.53;1.58;;;;;;;;;;5025266;28;20049;-71
2023/01/10 09:58:42;;;;;;;5.75;1.60;;;;;;;;;;5025900;28;20113;-70
2023/01/10 10:01:11;;;;;;;7.65;1.38;;;;;;;;;;5027474;28;20046;-71
2023/01/10 10:03:41;;;;;;;5.95;1.50;;;;;;;;;;5027862;28;20041;-70
2023/01/10 10:06:12;;;;;;;6.07;1.70;;;;;;;;;;5041916;28;20040;-70
2023/01/10 10:08:43;;;;;;;5.82;1.67;;;;;;;;;;5025069;28;20037;-70
2023/01/10 10:11:27;;;;;;;5.25;1.60;;;;;;;;;;5027502;28;20053;-71
2023/01/10 10:14:04;;;;;;;4.82;1.63;;;;;;;;;;5027406;28;20064;-71
2023/01/10 10:16:49;;;;;;;3.78;1.30;;;;;;;;;;5025550;28;20049;-70
2023/01/10 10:19:23;;;;;;;4.13;1.50;;;;;;;;;;5026632;28;20109;-69
2023/01/10 10:22:08;;;;;;;3.45;1.48;;;;;;;;;;5025049;28;20436;-69
2023/01/10 10:24:44;;;;;;;4.47;1.40;;;;;;;;;;5028033;28;20048;-70
2023/01/10 10:27:14;;;;;;;5.63;1.73;;;;;;;;;;5036277;28;20052;-70
2023/01/10 10:29:44;;;;;;;4.47;1.60;;;;;;;;;;5044694;28;20046;-71
2023/01/10 10:32:23;;;;;;;9.15;1.85;;;;;;;;;;5053058;28;20105;-70
2023/01/10 10:34:57;;;;;;;6.10;1.60;;;;;;;;;;5052995;28;20075;-70
2023/01/10 10:37:36;;;;;;;3.67;1.48;;;;;;;;;;5030638;28;20105;-70
2023/01/10 10:40:10;;;;;;;5.28;1.88;;;;;;;;;;5028036;28;20033;-70
2023/01/10 10:42:39;;;;;;;5.93;1.83;;;;;;;;;;5025327;28;20037;-70
2023/01/10 10:45:14;;;;;;;6.97;1.73;;;;;;;;;;5036932;28;20048;-70
2023/01/10 10:47:44;;;;;;;4.25;1.60;;;;;;;;;;5025516;28;20693;-71
2023/01/10 10:50:29;;;;;;;5.28;2.08;;;;;;;;;;5027525;28;20757;-71
2023/01/10 10:52:56;;;;;;;7.50;2.17;;;;;;;;;;5027311;28;20067;-70
2023/01/10 10:55:29;;;;;;;7.30;1.65;;;;;;;;;;5019821;28;20037;-70
2023/01/10 10:57:56;;;;;;;6.40;1.57;;;;;;;;;;5026019;28;20032;-71
2023/01/10 11:00:24;;;;;;;5.63;2.15;;;;;;;;;;5025968;28;20037;-70
2023/01/10 11:03:06;;;;;;;4.38;1.65;;;;;;;;;;5024282;28;20091;-70
2023/01/10 11:05:39;;;;;;;6.72;2.15;;;;;;;;;;5034984;28;21633;-70
2023/01/10 11:08:09;;;;;;;5.20;1.67;;;;;;;;;;5035258;28;20036;-69
2023/01/10 11:10:39;;;;;;;5.32;1.65;;;;;;;;;;5024259;28;20044;-69
2023/01/10 11:13:18;;;;;;;5.07;1.63;;;;;;;;;;5022188;28;20048;-70
2023/01/10 11:15:46;;;;;;;4.85;1.48;;;;;;;;;;5023658;28;20040;-70
2023/01/10 11:18:20;;;;;;;3.28;1.50;;;;;;;;;;5026008;28;20044;-69
2023/01/10 11:20:59;;;;;;;4.35;1.38;;;;;;;;;;5026267;28;20049;-70
2023/01/10 11:23:41;;;;;;;3.45;1.48;;;;;;;;;;5018839;28;20037;-70
2023/01/10 11:26:24;;;;;;;3.13;0.95;;;;;;;;;;5026791;28;20045;-70
2023/01/10 11:28:53;;;;;;;2.85;1.10;;;;;;;;;;5023792;28;20568;-70
2023/01/10 11:31:39;;;;;;;3.03;0.90;;;;;;;;;;5013544;28;20123;-70
2023/01/10 11:34:28;;;;;;;6.20;1.08;;;;;;;;;;5013470;28;20235;-70
2023/01/10 11:37:26;;;;;;;2.42;0.80;;;;;;;;;;5012681;28;20442;-70
2023/01/10 11:40:27;;;;;;;3.75;0.95;;;;;;;;;;5012725;28;20041;-70
2023/01/10 11:42:58;;;;;;;2.33;0.80;;;;;;;;;;4935883;29;20564;-70
2023/01/10 11:45:26;;;;;;;2.78;0.88;;;;;;;;;;4999067;28;20038;-71
2023/01/10 11:48:11;;;;;;;3.53;0.90;;;;;;;;;;5012314;28;20037;-70
2023/01/10 11:50:41;;;;;;;3.00;1.00;;;;;;;;;;5010373;28;20061;-70
2023/01/10 11:53:27;;;;;;;3.28;1.17;;;;;;;;;;5013668;28;20040;-69
2023/01/10 11:55:54;;;;;;;3.20;0.95;;;;;;;;;;5012929;28;20200;-69
2023/01/10 11:58:28;;;;;;;2.55;0.80;;;;;;;;;;5014948;28;20060;-70
2023/01/10 12:00:58;;;;;;;4.68;1.10;;;;;;;;;;5017323;28;20052;-70
2023/01/10 12:03:29;;;;;;;4.00;1.02;;;;;;;;;;5016742;28;20044;-70
2023/01/10 12:06:17;;;;;;;2.38;0.85;;;;;;;;;;4985664;28;20061;-70
2023/01/10 12:08:46;;;;;;;2.58;0.90;;;;;;;;;;4986895;28;20046;-70
2023/01/10 12:11:13;;;;;;;4.10;1.15;;;;;;;;;;5004072;28;20771;-69
2023/01/10 12:13:59;;;;;;;2.72;1.02;;;;;;;;;;4986720;28;20145;-69
2023/01/10 12:16:28;;;;;;;3.53;0.90;;;;;;;;;;5003398;28;20050;-69
2023/01/10 12:18:58;;;;;;;3.13;0.90;;;;;;;;;;5002088;28;20438;-69
2023/01/10 12:21:30;;;;;;;3.60;1.10;;;;;;;;;;5002983;28;20041;-68
2023/01/10 12:24:02;;;;;;;3.20;1.10;;;;;;;;;;5001468;28;20038;-68
2023/01/10 12:26:31;;;;;;;3.00;1.00;;;;;;;;;;4926337;28;20195;-68
2023/01/10 12:29:00;;;;;;;2.75;1.17;;;;;;;;;;4926667;28;20047;-69
2023/01/10 12:31:37;;;;;;;3.55;0.90;;;;;;;;;;4917871;29;20160;-68
2023/01/10 12:34:19;;;;;;;3.75;1.00;;;;;;;;;;4925557;28;20147;-68
2023/01/10 12:37:04;;;;;;;4.65;1.10;;;;;;;;;;4925345;28;20057;-69
2023/01/10 12:39:37;;;;;;;2.92;1.00;;;;;;;;;;4925622;28;20179;-69
2023/01/10 12:45:33;;;;;;;4.43;1.37;;;;;;;;;;4947402;28;20681;-69
2023/01/10 12:48:13;;;;;;;2.60;1.00;;;;;;;;;;4947798;28;20722;-69
2023/01/10 12:50:45;;;;;;;5.28;2.25;;;;;;;;;;4942144;28;20085;-71
2023/01/10 12:53:18;;;;;;;4.28;1.30;;;;;;;;;;4929824;28;20043;-69
2023/01/10 12:55:45;;;;;;;;;;;;;;;;;;4943782;28;20756;-69
2023/01/10 12:58:20;;;;;;;6.53;1.30;;;;;;;;;;4954233;28;21582;-69
2023/01/10 13:00:59;;;;;;;4.68;1.17;;;;;;;;;;4942927;28;20063;-70
2023/01/10 13:03:32;;;;;;;2.72;0.80;;;;;;;;;;4968388;28;20545;-70
2023/01/10 13:06:05;;;;;;;2.15;0.75;;;;;;;;;;4997477;28;20065;-69
2023/01/10 13:08:37;;;;;;;1.88;0.68;;;;;;;;;;4995393;28;20061;-70
2023/01/10 13:11:10;;;;;;;2.63;0.80;;;;;;;;;;5001130;28;20089;-69
2023/01/10 13:13:43;;;;;;;2.75;1.10;;;;;;;;;;4999614;28;20553;-69
2023/01/10 13:16:28;;;;;;;3.53;0.80;;;;;;;;;;5000937;28;20057;-70
2023/01/10 13:18:59;;;;;;;4.65;0.60;;;;;;;;;;4985856;28;20468;-69
2023/01/10 13:21:29;;;;;;;1.60;0.60;;;;;;;;;;4999973;28;20085;-70
2023/01/10 13:24:04;;;;;;;2.38;0.60;;;;;;;;;;4981820;28;20349;-70
2023/01/10 13:26:50;;;;;;;1.55;0.50;;;;;;;;;;5000156;28;20253;-70
2023/01/10 13:29:22;;;;;;;1.48;0.55;;;;;;;;;;5026390;28;20278;-70
2023/01/10 13:31:56;;;;;;;10.27;0.70;;;;;;;;;;4956200;28;20054;-67
2023/01/10 13:34:35;;;;;;;1.98;0.60;;;;;;;;;;4984037;28;20066;-69
2023/01/10 13:37:12;;;;;;;5.68;0.50;;;;;;;;;;4984401;28;20076;-69
2023/01/10 13:39:50;;;;;;;1.05;0.47;;;;;;;;;;4969356;28;20136;-70
2023/01/10 13:45:21;;;;;;;1.48;0.40;;;;;;;;;;4983006;28;20046;-71
2023/01/10 13:47:59;;;;;;;1.25;0.45;;;;;;;;;;4985673;28;20468;-70
2023/01/10 13:50:32;;;;;;;2.55;0.50;;;;;;;;;;4983436;28;20286;-72
2023/01/10 13:53:07;;;;;;;2.70;0.80;;;;;;;;;;4983482;28;20577;-71
2023/01/10 13:55:52;;;;;;;3.50;0.90;;;;;;;;;;4984847;28;20517;-70
2023/01/10 14:04:28;;;;;;;3.08;0.93;;;;;;;;;;4984017;28;20098;-72
2023/01/10 14:07:00;;;;;;;2.35;0.80;;;;;;;;;;4983759;28;20065;-71
2023/01/10 14:09:33;;;;;;;2.42;0.57;;;;;;;;;;5007658;28;20481;-71
2023/01/10 14:12:05;;;;;;;1.65;0.60;;;;;;;;;;5025418;28;20934;-71
2023/01/10 14:14:36;;;;;;;3.58;0.60;;;;;;;;;;5025099;28;20055;-71
2023/01/10 14:17:10;;;;;;;3.05;0.60;;;;;;;;;;5038807;28;20099;-71
2023/01/10 14:19:40;;;;;;;2.83;0.80;;;;;;;;;;5029657;28;20042;-71
2023/01/10 14:22:24;;;;;;;1.95;0.60;;;;;;;;;;5027756;28;20042;-71
2023/01/10 14:24:51;;;;;;;3.28;0.75;;;;;;;;;;5026014;28;20170;-70
2023/01/10 14:27:28;;;;;;;1.02;0.40;;;;;;;;;;5022562;28;20045;-71
2023/01/10 14:29:59;;;;;;;2.47;0.50;;;;;;;;;;5026711;28;20219;-71
2023/01/10 14:32:50;;;;;;;3.63;0.68;;;;;;;;;;5028371;28;20095;-69
2023/01/10 14:35:26;;;;;;;1.35;0.50;;;;;;;;;;5024712;28;20048;-69
2023/01/10 14:38:04;;;;;;;3.08;0.65;;;;;;;;;;5025682;28;20076;-70
2023/01/10 14:40:48;;;;;;;1.67;0.55;;;;;;;;;;5027367;28;20059;-69
2023/01/10 14:43:25;;;;;;;1.90;0.70;;;;;;;;;;5028282;28;20293;-69
2023/01/10 14:46:17;;;;;;;2.15;0.60;;;;;;;;;;5026523;28;20469;-65
2023/01/10 14:48:59;;;;;;;2.33;0.68;;;;;;;;;;5026769;28;20045;-69
2023/01/10 14:51:33;;;;;;;3.80;0.90;;;;;;;;;;5025517;28;20524;-67
2023/01/10 14:54:32;;;;;;;3.70;1.27;;;;;;;;;;5003896;28;20284;-70
2023/01/10 14:57:15;;;;;;;5.35;1.60;;;;;;;;;;5002894;28;20033;-69
2023/01/10 14:59:45;;;;;;;3.55;1.23;;;;;;;;;;5003206;28;20046;-70
2023/01/10 15:02:27;;;;;;;5.22;1.40;;;;;;;;;;5005320;28;20034;-70
2023/01/10 15:04:55;;;;;;;7.70;1.35;;;;;;;;;;5000279;28;20526;-69
2023/01/10 15:07:24;;;;;;;5.22;1.00;;;;;;;;;;5000259;28;20052;-69
2023/01/10 15:09:56;;;;;;;3.35;0.90;;;;;;;;;;5001597;28;20104;-69
2023/01/10 15:12:24;;;;;;;4.03;0.68;;;;;;;;;;5003069;28;20161;-70
2023/01/10 15:15:07;;;;;;;2.30;0.82;;;;;;;;;;5003222;28;20041;-69
2023/01/10 15:17:38;;;;;;;3.08;0.73;;;;;;;;;;5001363;28;20034;-69
2023/01/10 15:20:11;;;;;;;4.82;0.73;;;;;;;;;;5003283;28;20061;-70
2023/01/10 15:22:38;;;;;;;6.47;0.95;;;;;;;;;;4976024;28;20323;-69
2023/01/10 15:25:09;;;;;;;5.55;0.90;;;;;;;;;;5012288;28;20034;-70
2023/01/10 15:27:56;;;;;;;7.50;1.00;;;;;;;;;;4989986;28;20090;-71